Time;durP1;ratioP1;P1;durP2;ratioP2;P2;SDS_P1;SDS_P2;PMS_P1;PMS_P2;Temp;Humidity;BMP_temperature;BMP_pressure;BME280_temperature;BME280_humidity;BME280_pressure;Samples;Min_cycle;Max_cycle;Signal;HPM_P1;HPM_P2
2021/03/06 00:01:05;;;;;;;7.73;3.70;;;;;;;-144.99;94.57;52346.19;4950730;28;20709;-73
2021/03/06 00:03:31;;;;;;;6.40;2.90;;;;;;;-144.99;94.64;52372.69;4948426;29;21151;-75
2021/03/06 00:05:57;;;;;;;15.73;5.63;;;;;;;-144.99;94.65;52327.84;4947503;29;21181;-74
2021/03/06 00:08:24;;;;;;;10.97;3.37;;;;;;;-144.99;94.81;52380.84;4947665;29;20633;-74
2021/03/06 00:10:51;;;;;;;11.27;3.43;;;;;;;-144.99;95.01;52342.09;4946497;28;20684;-75
2021/03/06 00:13:17;;;;;;;8.30;3.10;;;;;;;-144.99;95.43;52370.63;4948378;29;21233;-73
2021/03/06 00:15:43;;;;;;;8.80;3.60;;;;;;;-144.99;95.41;52333.94;4948037;29;21028;-75
2021/03/06 00:18:10;;;;;;;7.30;2.50;;;;;;;-144.99;95.74;52362.50;4948598;29;20707;-73
2021/03/06 00:20:36;;;;;;;5.67;2.97;;;;;;;-144.99;95.85;52362.50;4947355;29;20659;-74
2021/03/06 00:23:02;;;;;;;6.93;3.63;;;;;;;-144.99;96.01;52378.78;4947287;28;20639;-75
2021/03/06 00:25:29;;;;;;;9.67;2.67;;;;;;;-144.99;96.30;52338.03;4953339;29;20639;-74
2021/03/06 00:27:55;;;;;;;6.70;2.33;;;;;;;-144.99;96.50;52344.16;4952218;29;20643;-74
2021/03/06 00:30:22;;;;;;;7.50;3.43;;;;;;;-144.99;96.78;52374.72;4953400;28;20680;-75
2021/03/06 00:32:48;;;;;;;10.27;6.80;;;;;;;-144.99;97.02;52350.25;4957332;29;21199;-74
2021/03/06 00:35:15;;;;;;;8.17;3.60;;;;;;;-144.99;97.22;52366.56;4951599;29;20628;-75
2021/03/06 00:37:42;;;;;;;5.40;2.37;;;;;;;-144.99;97.43;52354.34;4952760;29;20612;-75
2021/03/06 00:40:10;;;;;;;4.70;2.50;;;;;;;-144.99;97.69;52354.34;4958485;28;20660;-74
2021/03/06 00:42:36;;;;;;;8.80;3.87;;;;;;;-144.99;97.75;52356.38;4971158;29;20628;-73
2021/03/06 00:45:03;;;;;;;12.33;2.27;;;;;;;-144.99;98.06;52346.19;4963086;29;20613;-75
2021/03/06 00:47:29;;;;;;;6.47;2.43;;;;;;;-144.99;98.33;52338.03;4968502;29;20739;-75
2021/03/06 00:49:55;;;;;;;8.03;3.23;;;;;;;-144.99;98.43;52370.63;4953608;28;20670;-75
2021/03/06 00:52:22;;;;;;;8.93;3.00;;;;;;;-144.99;98.79;52348.22;4951331;29;20283;-74
2021/03/06 00:54:48;;;;;;;3.40;2.10;;;;;;;-144.99;98.72;52346.19;4952410;29;20719;-74
2021/03/06 00:57:14;;;;;;;8.57;3.47;;;;;;;-144.99;98.87;52333.94;4952390;29;20635;-75
2021/03/06 00:59:40;;;;;;;11.30;2.17;;;;;;;-144.99;98.94;52358.41;4954627;28;20750;-75
2021/03/06 01:02:06;;;;;;;6.77;1.80;;;;;;;-144.99;98.96;52336.00;4952207;28;20652;-74
2021/03/06 01:04:32;;;;;;;4.83;1.70;;;;;;;-144.99;99.10;52378.78;4951604;29;20632;-75
2021/03/06 01:06:58;;;;;;;9.60;1.97;;;;;;;-144.99;99.13;52321.72;4950710;29;20744;-75
2021/03/06 01:09:25;;;;;;;6.93;2.60;;;;;;;-144.99;98.90;52378.78;4951800;29;20305;-74
2021/03/06 01:11:51;;;;;;;16.07;3.00;;;;;;;-144.99;99.05;52366.56;4948074;29;21235;-76
2021/03/06 01:14:17;;;;;;;8.90;2.63;;;;;;;-144.99;99.07;52321.72;4952373;29;20636;-75
2021/03/06 01:16:43;;;;;;;7.50;2.00;;;;;;;-144.99;99.24;52329.88;4951316;29;20628;-76
2021/03/06 01:19:09;;;;;;;13.27;2.53;;;;;;;-144.99;99.16;52370.63;4950134;29;20659;-75
2021/03/06 01:21:35;;;;;;;5.53;1.50;;;;;;;-144.99;99.22;52358.41;4950954;28;20974;-74
2021/03/06 01:24:01;;;;;;;6.33;1.87;;;;;;;-144.99;99.00;52415.47;4951413;29;20632;-75
2021/03/06 01:26:28;;;;;;;9.63;2.43;;;;;;;-144.99;98.94;52378.78;4951806;29;20634;-75
2021/03/06 01:28:54;;;;;;;8.27;2.13;;;;;;;-144.99;98.63;52333.94;4952165;29;20620;-76
2021/03/06 01:31:21;;;;;;;7.43;2.13;;;;;;;-144.99;98.45;52354.34;4950848;28;20676;-75
2021/03/06 01:33:47;;;;;;;7.70;3.30;;;;;;;-144.99;98.46;52342.09;4950483;28;20667;-77
2021/03/06 01:36:13;;;;;;;9.93;5.60;;;;;;;-144.99;98.51;52329.88;4603015;29;10000453;-75
2021/03/06 01:38:39;;;;;;;9.77;2.63;;;;;;;-144.99;98.57;52323.75;4951418;29;20265;-75
2021/03/06 01:41:05;;;;;;;7.60;5.43;;;;;;;-144.99;98.67;52325.81;4950987;28;20296;-76
2021/03/06 01:43:31;;;;;;;6.70;3.77;;;;;;;-144.99;98.52;52374.72;4951028;29;20209;-74
2021/03/06 01:45:57;;;;;;;4.73;1.60;;;;;;;-144.99;98.63;52325.81;4949976;29;20207;-74
2021/03/06 01:48:23;;;;;;;4.37;1.87;;;;;;;-144.99;99.23;52331.91;4952743;29;20617;-75
2021/03/06 01:50:51;;;;;;;8.10;1.80;;;;;;;-144.99;99.39;52338.03;4951963;28;21260;-76
2021/03/06 01:53:18;;;;;;;5.73;3.83;;;;;;;-144.99;99.74;52342.09;4954350;29;20621;-76
2021/03/06 01:55:45;;;;;;;5.87;2.10;;;;;;;-144.99;99.43;52333.94;4953507;29;20647;-76
2021/03/06 01:58:13;;;;;;;3.90;1.53;;;;;;;-144.99;99.26;52360.44;4954491;29;20648;-75
2021/03/06 02:00:40;;;;;;;8.30;1.80;;;;;;;-144.99;99.16;52329.88;4955892;28;20723;-75
2021/03/06 02:03:07;;;;;;;3.27;1.17;;;;;;;-144.99;98.97;52354.34;4954282;29;20652;-74
2021/03/06 02:05:33;;;;;;;6.00;1.83;;;;;;;-144.99;99.27;52350.25;4952853;29;20629;-72
2021/03/06 02:07:59;;;;;;;10.03;2.97;;;;;;;-144.99;99.20;52305.41;4953179;29;20629;-73
2021/03/06 02:10:28;;;;;;;6.73;1.60;;;;;;;-144.99;99.20;52358.41;4953792;28;20760;-73
2021/03/06 02:13:13;;;;;;;7.80;1.87;;;;;;;-144.99;98.87;52358.41;4946382;29;20636;-74
2021/03/06 02:15:52;;;;;;;11.90;1.90;;;;;;;-144.99;98.92;52329.88;4950748;29;21286;-73
2021/03/06 02:18:24;;;;;;;4.00;3.57;;;;;;;-144.99;98.67;52321.72;4955388;29;20628;-73
2021/03/06 02:20:57;;;;;;;6.00;1.60;;;;;;;-144.99;98.60;52366.56;4944216;29;20644;-72
2021/03/06 02:24:01;;;;;;;11.50;3.03;;;;;;;-144.99;98.57;52329.88;4953593;29;20629;-72
2021/03/06 02:26:43;;;;;;;7.27;3.30;;;;;;;-144.99;98.37;52350.25;4950987;29;20634;-73
2021/03/06 02:29:32;;;;;;;4.63;1.90;;;;;;;-144.99;98.35;52366.56;4952782;29;20619;-74
2021/03/06 02:32:03;;;;;;;4.43;1.67;;;;;;;-144.99;98.46;52317.66;4951707;28;20671;-74
2021/03/06 02:34:31;;;;;;;6.60;1.87;;;;;;;-144.99;98.44;52333.94;4953033;29;20626;-74
2021/03/06 02:37:02;;;;;;;8.07;3.13;;;;;;;-144.99;98.68;52362.50;4952593;29;20624;-74
2021/03/06 02:39:32;;;;;;;7.53;1.93;;;;;;;-144.99;98.70;52321.72;4953150;29;20632;-74
2021/03/06 02:42:01;;;;;;;7.73;1.33;;;;;;;-144.99;98.96;52301.34;4946011;29;20647;-74
2021/03/06 02:44:29;;;;;;;5.70;1.53;;;;;;;-144.99;98.87;52338.03;4953719;29;20859;-75
2021/03/06 02:46:58;;;;;;;8.27;1.60;;;;;;;-144.99;98.80;52399.19;4951104;28;20636;-74
2021/03/06 02:49:24;;;;;;;4.17;1.63;;;;;;;-144.99;99.08;52366.56;4952149;29;20625;-73
2021/03/06 02:51:50;;;;;;;3.53;1.63;;;;;;;-144.99;99.18;52325.81;4943414;29;20668;-72
2021/03/06 02:54:16;;;;;;;5.20;1.63;;;;;;;-144.99;99.26;52360.44;4952731;29;20728;-72
2021/03/06 02:56:43;;;;;;;4.40;1.33;;;;;;;-144.99;99.05;52303.38;4951929;29;20201;-71
2021/03/06 02:59:19;;;;;;;6.20;2.93;;;;;;;-144.99;99.05;52338.03;4952635;28;21241;-71
2021/03/06 03:01:59;;;;;;;3.00;1.80;;;;;;;-144.99;99.26;52317.66;4963613;28;20711;-71
2021/03/06 03:04:34;;;;;;;2.43;1.43;;;;;;;-144.99;99.39;52346.19;4951269;29;20977;-73
2021/03/06 03:07:06;;;;;;;11.90;1.97;;;;;;;-144.99;99.75;52364.53;4951627;29;21513;-74
2021/03/06 03:09:35;;;;;;;5.73;2.13;;;;;;;-144.99;99.65;52333.94;4949785;29;20616;-72
2021/03/06 03:12:04;;;;;;;2.67;1.00;;;;;;;-144.99;99.71;52331.91;4951923;28;20759;-73
2021/03/06 03:14:34;;;;;;;6.03;1.53;;;;;;;-144.99;99.52;52333.94;4952062;29;20646;-73
2021/03/06 03:17:05;;;;;;;7.43;2.10;;;;;;;-144.99;99.58;52342.09;4950754;29;21032;-73
2021/03/06 03:19:35;;;;;;;6.57;1.90;;;;;;;-144.99;99.69;52346.19;4951159;29;20617;-72
2021/03/06 03:22:04;;;;;;;4.43;1.67;;;;;;;-144.99;99.67;52346.19;4947950;29;21164;-74
2021/03/06 03:24:36;;;;;;;4.17;2.00;;;;;;;-144.99;100.00;52329.88;4952338;29;21189;-73
2021/03/06 03:27:06;;;;;;;5.03;1.57;;;;;;;-144.99;99.95;52374.72;4953939;29;21170;-74
2021/03/06 03:29:34;;;;;;;11.77;2.27;;;;;;;-144.99;99.98;52323.75;4953936;29;20632;-75
2021/03/06 03:32:02;;;;;;;7.67;2.17;;;;;;;-144.99;100.00;52329.88;4951131;28;20719;-74
2021/03/06 03:34:29;;;;;;;11.73;2.57;;;;;;;-144.99;100.00;52336.00;4952310;29;20639;-75
2021/03/06 03:36:55;;;;;;;5.67;1.77;;;;;;;-144.99;100.00;52342.09;4944460;29;20966;-76
2021/03/06 03:39:22;;;;;;;6.80;1.90;;;;;;;-144.99;100.00;52342.09;4952192;28;20636;-78
2021/03/06 03:41:49;;;;;;;8.70;3.70;;;;;;;-144.99;100.00;52350.25;4955173;28;20654;-77
2021/03/06 03:44:16;;;;;;;6.13;1.50;;;;;;;-144.99;100.00;52333.94;4952747;29;20624;-75
2021/03/06 03:46:43;;;;;;;10.57;2.13;;;;;;;-144.99;100.00;52303.38;4951442;29;20628;-75
2021/03/06 03:49:14;;;;;;;11.73;3.30;;;;;;;-144.99;100.00;52336.00;4951097;29;20678;-75
2021/03/06 03:51:41;;;;;;;7.73;2.23;;;;;;;-144.99;100.00;52317.66;4951107;28;20671;-76
2021/03/06 03:54:08;;;;;;;5.07;1.20;;;;;;;-144.99;100.00;52354.34;4951708;29;20635;-77
2021/03/06 03:56:34;;;;;;;5.90;2.50;;;;;;;-144.99;100.00;52323.75;4951695;29;20636;-73
2021/03/06 03:59:01;;;;;;;4.13;1.10;;;;;;;-144.99;100.00;52346.19;4954928;28;20632;-76
2021/03/06 04:01:27;;;;;;;4.33;1.50;;;;;;;-144.99;100.00;52350.25;4952310;28;20656;-75
2021/03/06 04:03:53;;;;;;;7.13;2.53;;;;;;;-144.99;100.00;52356.38;4955713;29;20624;-74
2021/03/06 04:06:20;;;;;;;5.77;1.83;;;;;;;-144.99;100.00;52342.09;4956181;29;20653;-74
2021/03/06 04:08:46;;;;;;;10.00;1.87;;;;;;;-144.99;100.00;52327.84;4956179;29;20215;-73
2021/03/06 04:11:12;;;;;;;6.37;1.77;;;;;;;-144.99;100.00;52311.53;4966794;28;20774;-73
2021/03/06 04:13:38;;;;;;;7.47;2.10;;;;;;;-144.99;100.00;52329.88;4966806;29;20240;-74
2021/03/06 04:16:04;;;;;;;9.40;2.03;;;;;;;-144.99;100.00;52356.38;4967236;29;20671;-73
2021/03/06 04:18:30;;;;;;;17.07;3.90;;;;;;;-144.99;100.00;52333.94;4960178;29;20683;-72
2021/03/06 04:20:56;;;;;;;7.07;2.07;;;;;;;-144.99;100.00;52280.97;4954148;28;21070;-72
2021/03/06 04:23:23;;;;;;;6.30;3.57;;;;;;;-144.99;100.00;52378.78;4955163;29;20213;-73
2021/03/06 04:25:49;;;;;;;6.80;2.67;;;;;;;-144.99;100.00;52342.09;4955465;29;20659;-74
2021/03/06 04:28:15;;;;;;;5.00;2.03;;;;;;;-144.99;100.00;52356.38;4955596;29;20663;-74
2021/03/06 04:30:41;;;;;;;9.37;2.13;;;;;;;-144.99;100.00;52378.78;4954048;28;20671;-74
2021/03/06 04:33:07;;;;;;;7.57;2.33;;;;;;;-144.99;100.00;52325.81;4955254;29;20280;-74
2021/03/06 04:35:33;;;;;;;5.10;2.63;;;;;;;-144.99;100.00;52329.88;4954323;29;20229;-74
2021/03/06 04:37:59;;;;;;;10.80;4.07;;;;;;;-144.99;100.00;52336.00;4955156;29;20287;-73
2021/03/06 04:40:26;;;;;;;3.40;1.77;;;;;;;-144.99;100.00;52291.16;4955479;28;20221;-74
2021/03/06 04:42:52;;;;;;;10.37;2.63;;;;;;;-144.99;100.00;52309.50;4955757;28;20211;-75
2021/03/06 04:45:18;;;;;;;7.00;1.67;;;;;;;-144.99;100.00;52333.94;4954889;29;20675;-74
2021/03/06 04:47:46;;;;;;;17.03;7.50;;;;;;;-144.99;100.00;52329.88;4954362;29;20644;-75
2021/03/06 04:50:13;;;;;;;9.10;3.23;;;;;;;-144.99;100.00;52333.94;4953580;28;20783;-74
2021/03/06 04:52:39;;;;;;;8.47;1.90;;;;;;;-144.99;100.00;52321.72;4954754;29;21186;-76
2021/03/06 04:55:07;;;;;;;10.73;2.47;;;;;;;-144.99;100.00;52327.84;4955646;29;20705;-78
2021/03/06 04:57:34;;;;;;;10.73;2.57;;;;;;;-144.99;100.00;52317.66;4955287;29;20945;-78
2021/03/06 05:00:00;;;;;;;6.87;3.13;;;;;;;-144.99;100.00;52329.88;4957253;28;20621;-78
2021/03/06 05:02:26;;;;;;;4.37;2.47;;;;;;;-144.99;100.00;52329.88;4954618;29;20695;-78
2021/03/06 05:04:52;;;;;;;10.13;3.03;;;;;;;-144.99;100.00;52350.25;4954158;29;20711;-75
2021/03/06 05:07:18;;;;;;;3.53;2.20;;;;;;;-144.99;100.00;52309.50;4952586;29;20664;-75
2021/03/06 05:09:45;;;;;;;4.63;1.93;;;;;;;-144.99;100.00;52319.69;4953890;28;20201;-75
2021/03/06 05:12:11;;;;;;;6.13;2.57;;;;;;;-144.99;100.00;52331.91;4954357;29;20656;-74
2021/03/06 05:14:38;;;;;;;3.93;2.20;;;;;;;-144.99;100.00;52321.72;4955508;29;21170;-75
2021/03/06 05:17:04;;;;;;;8.93;3.07;;;;;;;-144.99;100.00;52317.66;4954315;29;20612;-77
2021/03/06 05:19:30;;;;;;;4.70;2.30;;;;;;;-144.99;100.00;52321.72;4953827;29;20731;-76
2021/03/06 05:21:56;;;;;;;9.33;2.97;;;;;;;-144.99;100.00;52346.19;4953380;28;20913;-76
2021/03/06 05:24:22;;;;;;;11.50;2.77;;;;;;;-144.99;100.00;52325.81;4955589;28;20669;-77
2021/03/06 05:27:00;;;;;;;4.83;2.30;;;;;;;-144.99;100.00;52333.94;4953787;29;20660;-77
2021/03/06 05:29:27;;;;;;;3.63;2.50;;;;;;;-144.99;100.00;52342.09;4954446;29;20239;-76
2021/03/06 05:31:54;;;;;;;10.00;2.63;;;;;;;-144.99;100.00;52293.19;4951817;28;21234;-76
2021/03/06 05:34:20;;;;;;;11.20;4.23;;;;;;;-144.99;100.00;52323.75;4958407;28;20631;-76
2021/03/06 05:36:46;;;;;;;9.70;2.70;;;;;;;-144.99;100.00;52297.25;4953690;28;20629;-76
2021/03/06 05:39:12;;;;;;;2.77;2.23;;;;;;;-144.99;100.00;52321.72;4953754;29;20628;-75
2021/03/06 05:41:39;;;;;;;6.10;3.37;;;;;;;-144.99;100.00;52340.06;4952862;28;20710;-75
2021/03/06 05:44:05;;;;;;;15.27;4.33;;;;;;;-144.99;100.00;52319.69;4954146;29;21010;-75
2021/03/06 05:46:32;;;;;;;5.20;1.90;;;;;;;-144.99;100.00;52329.88;4953338;29;20626;-75
2021/03/06 05:48:59;;;;;;;4.53;2.57;;;;;;;-144.99;100.00;52313.56;4952930;29;20663;-74
2021/03/06 05:51:26;;;;;;;10.47;2.13;;;;;;;-144.99;100.00;52333.94;4949908;28;21096;-75
2021/03/06 05:53:54;;;;;;;11.73;3.83;;;;;;;-144.99;100.00;52305.41;4953440;29;20697;-76
2021/03/06 05:56:21;;;;;;;7.10;2.23;;;;;;;-144.99;100.00;52329.88;4954527;29;20628;-75
2021/03/06 05:58:48;;;;;;;3.57;2.23;;;;;;;-144.99;100.00;52313.56;4954338;29;20644;-74
2021/03/06 06:01:15;;;;;;;9.87;2.50;;;;;;;-144.99;100.00;52342.09;4952787;28;20660;-77
2021/03/06 06:03:41;;;;;;;7.53;3.03;;;;;;;-144.99;100.00;52333.94;4954014;29;20639;-76
2021/03/06 06:06:09;;;;;;;10.30;3.10;;;;;;;-144.99;100.00;52317.66;4952146;29;20660;-74
2021/03/06 06:08:36;;;;;;;4.23;2.13;;;;;;;-144.99;100.00;52366.56;4952984;29;20635;-74
2021/03/06 06:11:05;;;;;;;7.43;2.73;;;;;;;-144.99;100.00;52338.03;4953391;28;21221;-74
2021/03/06 06:13:31;;;;;;;4.67;2.27;;;;;;;-144.99;100.00;52333.94;4954480;29;20644;-74
2021/03/06 06:15:57;;;;;;;15.43;2.70;;;;;;;-144.99;100.00;52307.47;4945270;29;21428;-75
2021/03/06 06:18:25;;;;;;;7.67;2.70;;;;;;;-144.99;100.00;52325.81;4953796;29;20628;-73
2021/03/06 06:20:51;;;;;;;4.40;1.80;;;;;;;-144.99;100.00;52317.66;4943713;28;20664;-74
2021/03/06 06:23:18;;;;;;;6.43;2.83;;;;;;;-144.99;100.00;52338.03;4953010;29;20645;-77
2021/03/06 06:25:45;;;;;;;6.43;2.67;;;;;;;-144.99;100.00;52293.19;4952298;29;20957;-75
2021/03/06 06:28:11;;;;;;;4.93;2.43;;;;;;;-144.99;100.00;52309.50;4999829;23;21251;-72
2021/03/06 06:30:37;;;;;;;9.70;2.93;;;;;;;-144.99;100.00;52321.72;4990112;28;21019;-73
2021/03/06 06:33:03;;;;;;;6.63;2.20;;;;;;;-144.99;100.00;52329.88;4990572;28;21007;-73
2021/03/06 06:35:42;;;;;;;8.93;2.33;;;;;;;-144.99;100.00;52321.72;4989949;28;20998;-71
2021/03/06 06:38:09;;;;;;;10.63;2.70;;;;;;;-144.99;100.00;52325.81;4990438;28;21239;-73
2021/03/06 06:40:37;;;;;;;7.60;2.70;;;;;;;-144.99;100.00;52370.63;4990881;28;20619;-72
2021/03/06 06:43:22;;;;;;;7.60;2.03;;;;;;;-144.99;100.00;52325.81;4992050;28;20733;-73
2021/03/06 06:45:48;;;;;;;6.50;2.10;;;;;;;-144.99;100.00;52315.59;4990688;28;21062;-73
2021/03/06 06:48:15;;;;;;;10.70;2.30;;;;;;;-144.99;100.00;52317.66;4991294;28;20651;-71
2021/03/06 06:50:41;;;;;;;8.50;2.47;;;;;;;-144.99;100.00;52340.06;4990190;28;20650;-72
2021/03/06 06:53:21;;;;;;;13.37;2.63;;;;;;;-144.99;100.00;52333.94;4990922;28;20631;-73
2021/03/06 06:55:48;;;;;;;8.43;3.97;;;;;;;-144.99;100.00;52338.03;4991260;28;20641;-72
2021/03/06 06:58:14;;;;;;;8.67;4.03;;;;;;;-144.99;100.00;52317.66;4990632;28;20665;-73
2021/03/06 07:00:40;;;;;;;9.73;2.50;;;;;;;-144.99;100.00;52303.38;4993255;28;20623;-72
2021/03/06 07:03:07;;;;;;;15.23;2.83;;;;;;;-144.99;100.00;52313.56;4991156;28;20199;-73
2021/03/06 07:05:34;;;;;;;17.30;3.77;;;;;;;-144.99;100.00;52333.94;4989474;28;20199;-73
2021/03/06 07:08:02;;;;;;;12.57;3.00;;;;;;;-144.99;100.00;52338.03;4990553;28;20712;-71
2021/03/06 07:10:34;;;;;;;12.03;4.73;;;;;;;-144.99;100.00;52362.50;4990059;28;20658;-72
2021/03/06 07:13:02;;;;;;;16.33;3.53;;;;;;;-144.99;100.00;52293.19;4991039;28;20627;-71
2021/03/06 07:15:30;;;;;;;11.57;4.07;;;;;;;-144.99;100.00;52327.84;4990350;28;20704;-71
2021/03/06 07:17:58;;;;;;;13.30;3.30;;;;;;;-144.99;100.00;52338.03;4990990;28;20646;-74
2021/03/06 07:20:33;;;;;;;16.93;3.47;;;;;;;-144.99;100.00;52309.50;4990770;28;20610;-76
2021/03/06 07:23:12;;;;;;;10.87;2.63;;;;;;;-144.99;100.00;52336.00;4986371;28;21148;-76
2021/03/06 07:25:39;;;;;;;11.10;2.60;;;;;;;-144.99;100.00;52338.03;4989324;28;20987;-76
2021/03/06 07:28:07;;;;;;;18.37;5.97;;;;;;;-144.99;100.00;52262.63;4990208;28;20668;-76
2021/03/06 07:30:33;;;;;;;9.13;2.63;;;;;;;-144.99;100.00;52309.50;4989496;28;20665;-76
2021/03/06 07:33:03;;;;;;;9.43;2.33;;;;;;;-144.99;100.00;52321.72;4990165;28;20970;-76
2021/03/06 07:35:34;;;;;;;17.87;4.27;;;;;;;-144.99;100.00;52327.84;4989942;28;20611;-76
2021/03/06 07:38:02;;;;;;;9.60;3.63;;;;;;;-144.99;100.00;52354.34;4990143;28;20704;-75
2021/03/06 07:40:31;;;;;;;6.17;2.93;;;;;;;-144.99;100.00;52291.16;4989982;28;20611;-74
2021/03/06 07:42:59;;;;;;;11.93;2.70;;;;;;;-144.99;100.00;52313.56;4990684;28;20626;-75
2021/03/06 07:45:28;;;;;;;7.23;2.63;;;;;;;-144.99;100.00;52331.91;4990272;28;20952;-74
2021/03/06 07:47:58;;;;;;;8.03;3.60;;;;;;;-144.99;100.00;52309.50;4990804;28;20651;-74
2021/03/06 07:50:26;;;;;;;10.00;2.80;;;;;;;-144.99;100.00;52340.06;4990202;28;20662;-75
2021/03/06 07:52:52;;;;;;;13.43;2.63;;;;;;;-144.99;100.00;52283.00;4989692;28;21013;-72
2021/03/06 07:55:19;;;;;;;11.50;2.90;;;;;;;-144.99;100.00;52297.25;4992162;28;20627;-72
2021/03/06 07:58:02;;;;;;;8.90;3.27;;;;;;;-144.99;100.00;52338.03;4992739;28;20646;-73
2021/03/06 08:00:45;;;;;;;7.93;2.10;;;;;;;-144.99;100.00;52333.94;4996235;28;20607;-73
2021/03/06 08:03:37;;;;;;;10.33;2.90;;;;;;;-144.99;100.00;52272.81;4990054;28;20630;-74
2021/03/06 08:06:18;;;;;;;16.37;3.17;;;;;;;-144.99;100.00;52301.34;4988899;28;20619;-73
2021/03/06 08:09:05;;;;;;;18.07;5.93;;;;;;;-144.99;100.00;52325.81;4989452;28;20989;-72
2021/03/06 08:11:43;;;;;;;8.67;3.03;;;;;;;-144.99;100.00;52325.81;4991224;28;20658;-73
2021/03/06 08:14:41;;;;;;;5.03;2.47;;;;;;;-144.99;100.00;52317.66;4991601;28;20628;-74
2021/03/06 08:17:32;;;;;;;8.07;2.20;;;;;;;-144.99;100.00;52299.31;4987286;28;20750;-73
2021/03/06 08:19:58;;;;;;;7.57;2.53;;;;;;;-144.99;100.00;52319.69;4986838;28;20634;-71
2021/03/06 08:22:24;;;;;;;9.73;2.03;;;;;;;-144.99;100.00;52313.56;4993311;28;20749;-73
2021/03/06 08:24:50;;;;;;;5.27;2.17;;;;;;;-144.99;100.00;52336.00;4990988;28;20621;-72
2021/03/06 08:27:23;;;;;;;11.67;4.43;;;;;;;-144.99;100.00;52317.66;4992041;28;21040;-75
2021/03/06 08:29:55;;;;;;;5.87;1.80;;;;;;;-144.99;100.00;52268.72;4990236;28;20198;-71
2021/03/06 08:32:30;;;;;;;9.03;2.17;;;;;;;-144.99;100.00;52289.13;4991907;28;20681;-74
2021/03/06 08:34:58;;;;;;;5.83;3.03;;;;;;;-144.99;100.00;52313.56;4989167;28;20633;-72
2021/03/06 08:37:36;;;;;;;10.20;3.83;;;;;;;-144.99;100.00;52248.34;4993452;28;20662;-71
2021/03/06 08:40:12;;;;;;;11.37;2.77;;;;;;;-144.99;100.00;52248.34;4991198;28;20680;-73
2021/03/06 08:42:40;;;;;;;8.10;2.43;;;;;;;-144.99;100.00;52264.66;4991220;28;20973;-71
2021/03/06 08:45:13;;;;;;;5.97;2.47;;;;;;;-144.99;100.00;52297.25;4991936;28;20614;-72
2021/03/06 08:47:42;;;;;;;13.77;4.10;;;;;;;-144.99;100.00;52264.66;4996012;28;21026;-74
2021/03/06 08:50:11;;;;;;;8.03;2.27;;;;;;;-144.99;100.00;52297.25;4995100;28;20614;-72
2021/03/06 08:52:39;;;;;;;7.33;4.23;;;;;;;-144.99;100.00;52285.03;4994944;28;20657;-71
2021/03/06 08:55:07;;;;;;;5.97;3.07;;;;;;;-144.99;100.00;52289.13;5000427;28;20199;-72
2021/03/06 08:57:34;;;;;;;6.70;2.57;;;;;;;-144.99;100.00;52305.41;4992631;28;20227;-72
2021/03/06 09:00:03;;;;;;;9.83;3.80;;;;;;;-144.99;100.00;52264.66;4996550;28;20637;-73
2021/03/06 09:02:31;;;;;;;4.63;1.50;;;;;;;-144.99;100.00;52260.56;4993262;28;20203;-73
2021/03/06 09:05:07;;;;;;;3.77;2.50;;;;;;;-144.99;100.00;52260.56;4988255;28;20204;-72
2021/03/06 09:07:36;;;;;;;3.33;1.70;;;;;;;-144.99;100.00;52301.34;4989538;28;20243;-72
2021/03/06 09:10:35;;;;;;;3.50;1.57;;;;;;;-144.99;100.00;52276.88;4988807;28;20556;-71
2021/03/06 09:13:04;;;;;;;4.17;2.23;;;;;;;-144.99;100.00;52329.88;4993120;28;20246;-71
2021/03/06 09:15:39;;;;;;;4.87;2.43;;;;;;;-144.99;100.00;52272.81;4987963;28;20235;-71
2021/03/06 09:18:09;;;;;;;6.17;2.17;;;;;;;-144.99;100.00;52289.13;4988241;28;20657;-73
2021/03/06 09:20:45;;;;;;;6.70;3.43;;;;;;;-144.99;100.00;52301.34;4992458;28;20218;-71
2021/03/06 09:23:22;;;;;;;4.97;3.40;;;;;;;-144.99;100.00;52266.69;4992999;28;20622;-71
2021/03/06 09:25:48;;;;;;;7.70;3.90;;;;;;;-144.99;100.00;52321.72;4992817;28;21046;-73
2021/03/06 09:28:14;;;;;;;5.47;3.27;;;;;;;-144.99;100.00;52285.03;4986671;28;20671;-71
2021/03/06 09:30:42;;;;;;;7.27;2.60;;;;;;;-144.99;100.00;52293.19;4986868;28;20766;-71
2021/03/06 09:33:22;;;;;;;12.97;4.13;;;;;;;-144.99;100.00;52299.31;5000122;28;20209;-71
2021/03/06 09:35:56;;;;;;;3.70;2.43;;;;;;;-144.99;100.00;52280.97;4991552;28;20767;-72
2021/03/06 09:38:23;;;;;;;3.57;2.30;;;;;;;-144.99;100.00;52252.44;4992150;28;21410;-72
2021/03/06 09:40:50;;;;;;;5.33;2.67;;;;;;;-144.99;100.00;52268.72;4991641;28;21246;-72
2021/03/06 09:43:23;;;;;;;7.87;2.33;;;;;;;-144.99;100.00;52280.97;4992706;28;20645;-71
2021/03/06 09:45:50;;;;;;;6.20;2.70;;;;;;;-144.99;100.00;52260.56;4991429;28;20669;-72
2021/03/06 09:48:16;;;;;;;6.23;2.63;;;;;;;-144.99;100.00;52252.44;4992138;28;21228;-73
2021/03/06 09:50:44;;;;;;;4.50;2.33;;;;;;;-144.99;100.00;52289.13;4990895;28;20662;-73
2021/03/06 09:53:18;;;;;;;5.27;2.03;;;;;;;-144.99;100.00;52331.91;4988525;28;20632;-72
2021/03/06 09:55:46;;;;;;;4.97;1.97;;;;;;;-144.99;99.13;52252.44;4979840;28;20238;-72
2021/03/06 09:58:24;;;;;;;8.93;2.10;;;;;;;-144.99;99.03;52289.13;4992331;28;20294;-74
2021/03/06 10:00:52;;;;;;;6.87;2.33;;;;;;;-144.99;95.67;52268.72;4990956;28;20195;-72
2021/03/06 10:03:34;;;;;;;3.30;1.80;;;;;;;-144.99;93.12;52219.81;4988921;28;20200;-72
2021/03/06 10:06:02;;;;;;;9.07;2.13;;;;;;;-144.99;91.94;52276.88;4990564;28;20579;-73
2021/03/06 10:08:30;;;;;;;4.23;2.50;;;;;;;-144.99;93.16;52301.34;4991344;28;20748;-73
2021/03/06 10:10:59;;;;;;;3.87;2.03;;;;;;;-144.99;93.52;52276.88;4990398;28;20219;-73
2021/03/06 10:13:26;;;;;;;3.33;1.40;;;;;;;-144.99;94.41;52313.56;4991232;28;20254;-73
2021/03/06 10:15:53;;;;;;;3.27;1.50;;;;;;;-144.99;94.25;52252.44;4990444;28;20585;-73
2021/03/06 10:18:21;;;;;;;4.40;1.93;;;;;;;-144.99;93.45;52317.66;4991951;28;20232;-73
2021/03/06 10:20:48;;;;;;;2.33;1.43;;;;;;;-144.99;93.64;52303.38;4990552;28;20235;-73
2021/03/06 10:23:15;;;;;;;5.57;2.70;;;;;;;-144.99;93.52;52280.97;4991286;28;20209;-72
2021/03/06 10:25:41;;;;;;;3.27;1.57;;;;;;;-144.99;93.47;52317.66;4990938;28;20658;-73
2021/03/06 10:28:12;;;;;;;5.53;2.40;;;;;;;-144.99;93.64;52276.88;4986983;28;20242;-73
2021/03/06 10:30:41;;;;;;;5.20;2.93;;;;;;;-144.99;93.23;52305.41;4990218;28;20234;-72
2021/03/06 10:33:20;;;;;;;4.57;3.27;;;;;;;-144.99;92.28;52309.50;4991871;28;20203;-73
2021/03/06 10:35:49;;;;;;;5.07;2.53;;;;;;;-144.99;91.95;52270.78;4988460;28;20302;-71
2021/03/06 10:38:25;;;;;;;8.33;2.63;;;;;;;-144.99;91.67;52280.97;4997772;28;20223;-74
2021/03/06 10:40:55;;;;;;;5.30;2.97;;;;;;;-144.99;91.78;52317.66;4995279;28;20622;-72
2021/03/06 10:43:43;;;;;;;6.43;3.30;;;;;;;-144.99;91.38;52321.72;4980982;28;20701;-72
2021/03/06 10:46:10;;;;;;;6.23;3.53;;;;;;;-144.99;91.81;52297.25;4990910;28;20218;-75
2021/03/06 10:48:37;;;;;;;7.23;2.53;;;;;;;-144.99;92.10;52311.53;4992326;28;20228;-72
2021/03/06 10:51:03;;;;;;;7.23;2.60;;;;;;;-144.99;92.06;52299.31;4989053;28;20615;-72
2021/03/06 10:53:30;;;;;;;7.87;2.93;;;;;;;-144.99;90.95;52287.06;4990380;28;20385;-72
2021/03/06 10:55:57;;;;;;;8.13;3.17;;;;;;;-144.99;90.32;52268.72;4990811;28;20626;-73
2021/03/06 10:58:42;;;;;;;6.50;2.87;;;;;;;-144.99;90.14;52321.72;4991316;28;20227;-73
2021/03/06 11:01:09;;;;;;;6.47;3.30;;;;;;;-144.99;88.58;52317.66;4989282;28;20195;-73
2021/03/06 11:03:43;;;;;;;6.23;5.63;;;;;;;-144.99;88.46;52260.56;4991088;28;20283;-73
2021/03/06 11:06:09;;;;;;;6.57;3.10;;;;;;;-144.99;88.70;52280.97;4989248;28;20211;-74
2021/03/06 11:08:35;;;;;;;5.07;2.63;;;;;;;-144.99;88.01;52264.66;4990751;28;20227;-74
2021/03/06 11:11:01;;;;;;;11.50;6.77;;;;;;;-144.99;88.58;52285.03;4990537;28;20295;-74
2021/03/06 11:13:39;;;;;;;4.93;2.57;;;;;;;-144.99;88.42;52297.25;4990731;28;20204;-72
2021/03/06 11:16:06;;;;;;;3.87;2.57;;;;;;;-144.99;88.58;52268.72;4977924;28;20207;-73
2021/03/06 11:18:33;;;;;;;3.80;2.00;;;;;;;-144.99;88.76;52317.66;4990461;28;20732;-73
2021/03/06 11:20:59;;;;;;;7.23;2.13;;;;;;;-144.99;88.65;52305.41;4989622;28;20295;-72